NEG weather

Negril Airport
Negril, Hanover, Jamaica

Public forecast

Using degrees Celsius for public forecast. Weather courtesy of forecast.io.

Closest aviation weather report (METAR) to Negril Airport

Closest report is Sangster International Airport, 25.7 nm (47.7 km) ENE. Retrieved 2020/02/17 17:00 UTC (56 minutes ago):

MKJS 171700Z 07020KT 9999 FEW022 28/23 Q1015

Closest aviation forecast (TAF) to Negril Airport

Closest forecast is Sangster International Airport, 25.7 nm (47.7 km) ENE. Retrieved 2020/02/17 12:22 UTC (6 hours ago):

TAF MKJS 171115Z 1712/1812 13005KT 9999 FEW022 SCT036 BECMG 1715/1717 07020KT PROB40 TEMPO 1716/1722 5000 SHRA BKN018 BKN032 BECMG 1800/1802 12010KT